Terminal Aerodrome Forecast
Issued by NWS Wilmington, OH

Current Version | Previous Version | Graphics & Text | Print | Product List | Glossary On
Versions: 1 2 3 4 5 6 7 8 9 10 11 12 13 14 15 16 17 18 19 20 21 22 23 24 25 26
000
FTUS41 KILN 300900 AAA
TAFILN
TAF AMD
KILN 300935Z 3010/3106 32013G22KT P6SM OVC035
      TEMPO 3010/3011 1SM -SN BR BKN015
     FM301100 32014G21KT P6SM OVC050
     FM301400 33013G20KT P6SM OVC020
     FM302000 33010KT P6SM OVC020
     FM310200 VRB04KT P6SM OVC025=

USA.gov is the U.S. government's official web portal to all federal, state and local government web resources and services.